sensor_id;sensor_type;location;lat;lon;timestamp;P1;durP1;ratioP1;P2;durP2;ratioP2
14231;SDS011;7200;52.194;9.900;2023-11-21T00:02:10;11.47;;;6.33;;
14231;SDS011;7200;52.194;9.900;2023-11-21T00:04:36;8.93;;;4.90;;
14231;SDS011;7200;52.194;9.900;2023-11-21T00:07:01;10.80;;;4.87;;
14231;SDS011;7200;52.194;9.900;2023-11-21T00:09:26;4.83;;;4.40;;
14231;SDS011;7200;52.194;9.900;2023-11-21T00:11:52;5.23;;;4.37;;
14231;SDS011;7200;52.194;9.900;2023-11-21T00:14:17;13.20;;;5.37;;
14231;SDS011;7200;52.194;9.900;2023-11-21T00:16:43;8.50;;;6.00;;
14231;SDS011;7200;52.194;9.900;2023-11-21T00:19:08;5.23;;;3.30;;
14231;SDS011;7200;52.194;9.900;2023-11-21T00:21:33;16.77;;;7.40;;
14231;SDS011;7200;52.194;9.900;2023-11-21T00:23:59;10.17;;;3.90;;
14231;SDS011;7200;52.194;9.900;2023-11-21T00:26:24;6.63;;;2.47;;
14231;SDS011;7200;52.194;9.900;2023-11-21T00:28:50;3.97;;;3.53;;
14231;SDS011;7200;52.194;9.900;2023-11-21T00:31:15;9.90;;;5.87;;
14231;SDS011;7200;52.194;9.900;2023-11-21T00:33:41;15.50;;;7.23;;
14231;SDS011;7200;52.194;9.900;2023-11-21T00:36:07;11.73;;;5.30;;
14231;SDS011;7200;52.194;9.900;2023-11-21T00:38:37;12.50;;;6.37;;
14231;SDS011;7200;52.194;9.900;2023-11-21T00:41:05;3.57;;;2.73;;
14231;SDS011;7200;52.194;9.900;2023-11-21T00:43:31;8.13;;;5.50;;
14231;SDS011;7200;52.194;9.900;2023-11-21T00:45:58;8.23;;;4.83;;
14231;SDS011;7200;52.194;9.900;2023-11-21T00:48:24;10.00;;;6.60;;
14231;SDS011;7200;52.194;9.900;2023-11-21T00:50:49;10.63;;;6.13;;
14231;SDS011;7200;52.194;9.900;2023-11-21T00:53:15;8.03;;;2.13;;
14231;SDS011;7200;52.194;9.900;2023-11-21T00:55:40;2.30;;;2.20;;
14231;SDS011;7200;52.194;9.900;2023-11-21T00:58:06;16.40;;;7.13;;
14231;SDS011;7200;52.194;9.900;2023-11-21T01:00:32;12.20;;;6.83;;
14231;SDS011;7200;52.194;9.900;2023-11-21T01:03:00;4.43;;;2.40;;
14231;SDS011;7200;52.194;9.900;2023-11-21T01:05:25;14.27;;;6.37;;
14231;SDS011;7200;52.194;9.900;2023-11-21T01:07:51;5.70;;;4.60;;
14231;SDS011;7200;52.194;9.900;2023-11-21T01:10:17;10.47;;;5.90;;
14231;SDS011;7200;52.194;9.900;2023-11-21T01:12:42;1.17;;;1.10;;
14231;SDS011;7200;52.194;9.900;2023-11-21T01:15:08;1.60;;;1.50;;
14231;SDS011;7200;52.194;9.900;2023-11-21T01:17:34;7.67;;;2.13;;
14231;SDS011;7200;52.194;9.900;2023-11-21T01:20:00;5.67;;;4.03;;
14231;SDS011;7200;52.194;9.900;2023-11-21T01:22:26;5.70;;;2.23;;
14231;SDS011;7200;52.194;9.900;2023-11-21T01:24:54;15.87;;;6.50;;
14231;SDS011;7200;52.194;9.900;2023-11-21T01:27:19;10.23;;;5.33;;
14231;SDS011;7200;52.194;9.900;2023-11-21T01:29:45;6.43;;;4.60;;
14231;SDS011;7200;52.194;9.900;2023-11-21T01:32:10;2.00;;;1.80;;
14231;SDS011;7200;52.194;9.900;2023-11-21T01:34:36;11.63;;;3.90;;
14231;SDS011;7200;52.194;9.900;2023-11-21T01:37:02;7.30;;;4.73;;
14231;SDS011;7200;52.194;9.900;2023-11-21T01:39:29;12.83;;;7.90;;
14231;SDS011;7200;52.194;9.900;2023-11-21T01:41:55;4.90;;;4.07;;
14231;SDS011;7200;52.194;9.900;2023-11-21T01:44:20;10.60;;;6.23;;
14231;SDS011;7200;52.194;9.900;2023-11-21T01:46:45;3.30;;;3.10;;
14231;SDS011;7200;52.194;9.900;2023-11-21T01:49:12;11.53;;;6.50;;
14231;SDS011;7200;52.194;9.900;2023-11-21T01:51:40;5.27;;;2.50;;
14231;SDS011;7200;52.194;9.900;2023-11-21T01:54:08;3.77;;;3.40;;
14231;SDS011;7200;52.194;9.900;2023-11-21T01:56:34;5.67;;;4.07;;
14231;SDS011;7200;52.194;9.900;2023-11-21T01:58:59;14.63;;;4.40;;
14231;SDS011;7200;52.194;9.900;2023-11-21T02:01:25;5.97;;;3.77;;
14231;SDS011;7200;52.194;9.900;2023-11-21T02:03:51;7.13;;;3.00;;
14231;SDS011;7200;52.194;9.900;2023-11-21T02:06:16;1.80;;;1.70;;
14231;SDS011;7200;52.194;9.900;2023-11-21T02:08:43;5.40;;;4.23;;
14231;SDS011;7200;52.194;9.900;2023-11-21T02:11:09;6.50;;;3.67;;
14231;SDS011;7200;52.194;9.900;2023-11-21T02:13:37;6.97;;;5.43;;
14231;SDS011;7200;52.194;9.900;2023-11-21T02:16:03;8.67;;;4.43;;
14231;SDS011;7200;52.194;9.900;2023-11-21T02:18:30;4.80;;;4.37;;
14231;SDS011;7200;52.194;9.900;2023-11-21T02:20:55;3.87;;;3.50;;
14231;SDS011;7200;52.194;9.900;2023-11-21T02:23:21;4.30;;;2.67;;
14231;SDS011;7200;52.194;9.900;2023-11-21T02:25:48;10.57;;;7.20;;
14231;SDS011;7200;52.194;9.900;2023-11-21T02:28:13;20.07;;;8.53;;
14231;SDS011;7200;52.194;9.900;2023-11-21T02:30:40;12.23;;;8.93;;
14231;SDS011;7200;52.194;9.900;2023-11-21T02:33:05;0.93;;;0.93;;
14231;SDS011;7200;52.194;9.900;2023-11-21T02:35:32;1.70;;;1.60;;
14231;SDS011;7200;52.194;9.900;2023-11-21T02:37:57;5.17;;;4.63;;
14231;SDS011;7200;52.194;9.900;2023-11-21T02:40:22;6.07;;;4.70;;
14231;SDS011;7200;52.194;9.900;2023-11-21T02:42:49;7.57;;;4.83;;
14231;SDS011;7200;52.194;9.900;2023-11-21T02:45:16;8.37;;;5.87;;
14231;SDS011;7200;52.194;9.900;2023-11-21T02:47:42;15.93;;;7.67;;
14231;SDS011;7200;52.194;9.900;2023-11-21T02:50:08;14.63;;;6.17;;
14231;SDS011;7200;52.194;9.900;2023-11-21T02:52:34;2.13;;;1.27;;
14231;SDS011;7200;52.194;9.900;2023-11-21T02:55:00;9.30;;;4.77;;
14231;SDS011;7200;52.194;9.900;2023-11-21T02:57:29;4.17;;;2.33;;
14231;SDS011;7200;52.194;9.900;2023-11-21T02:59:54;5.63;;;4.10;;
14231;SDS011;7200;52.194;9.900;2023-11-21T03:02:20;16.10;;;9.83;;
14231;SDS011;7200;52.194;9.900;2023-11-21T03:04:45;14.60;;;4.73;;
14231;SDS011;7200;52.194;9.900;2023-11-21T03:07:13;11.50;;;5.07;;
14231;SDS011;7200;52.194;9.900;2023-11-21T03:09:38;12.07;;;5.13;;
14231;SDS011;7200;52.194;9.900;2023-11-21T03:12:03;6.73;;;5.33;;
14231;SDS011;7200;52.194;9.900;2023-11-21T03:14:29;15.30;;;6.87;;
14231;SDS011;7200;52.194;9.900;2023-11-21T03:16:55;7.13;;;4.53;;
14231;SDS011;7200;52.194;9.900;2023-11-21T03:19:20;17.50;;;8.23;;
14231;SDS011;7200;52.194;9.900;2023-11-21T03:21:45;7.53;;;5.27;;
14231;SDS011;7200;52.194;9.900;2023-11-21T03:24:10;15.07;;;8.67;;
14231;SDS011;7200;52.194;9.900;2023-11-21T03:26:36;9.37;;;4.10;;
14231;SDS011;7200;52.194;9.900;2023-11-21T03:29:03;20.27;;;6.07;;
14231;SDS011;7200;52.194;9.900;2023-11-21T03:31:29;5.27;;;3.07;;
14231;SDS011;7200;52.194;9.900;2023-11-21T03:33:55;11.90;;;8.60;;
14231;SDS011;7200;52.194;9.900;2023-11-21T03:36:20;7.90;;;5.90;;
14231;SDS011;7200;52.194;9.900;2023-11-21T03:38:48;10.33;;;6.73;;
14231;SDS011;7200;52.194;9.900;2023-11-21T03:41:13;12.07;;;3.70;;
14231;SDS011;7200;52.194;9.900;2023-11-21T03:43:39;11.23;;;7.07;;
14231;SDS011;7200;52.194;9.900;2023-11-21T03:46:05;7.40;;;6.63;;
14231;SDS011;7200;52.194;9.900;2023-11-21T03:48:30;6.93;;;3.83;;
14231;SDS011;7200;52.194;9.900;2023-11-21T03:50:56;2.93;;;2.20;;
14231;SDS011;7200;52.194;9.900;2023-11-21T03:53:21;13.23;;;3.50;;
14231;SDS011;7200;52.194;9.900;2023-11-21T03:55:47;7.67;;;5.37;;
14231;SDS011;7200;52.194;9.900;2023-11-21T03:58:12;13.80;;;4.37;;
14231;SDS011;7200;52.194;9.900;2023-11-21T04:00:37;4.80;;;2.90;;
14231;SDS011;7200;52.194;9.900;2023-11-21T04:03:02;16.60;;;7.83;;
14231;SDS011;7200;52.194;9.900;2023-11-21T04:05:28;2.83;;;2.63;;
14231;SDS011;7200;52.194;9.900;2023-11-21T04:07:53;13.67;;;7.10;;
14231;SDS011;7200;52.194;9.900;2023-11-21T04:10:19;20.33;;;5.60;;
14231;SDS011;7200;52.194;9.900;2023-11-21T04:12:44;12.47;;;7.20;;
14231;SDS011;7200;52.194;9.900;2023-11-21T04:15:10;4.20;;;2.83;;
14231;SDS011;7200;52.194;9.900;2023-11-21T04:17:37;8.63;;;5.97;;
14231;SDS011;7200;52.194;9.900;2023-11-21T04:20:03;7.53;;;3.13;;
14231;SDS011;7200;52.194;9.900;2023-11-21T04:22:34;21.77;;;9.63;;
14231;SDS011;7200;52.194;9.900;2023-11-21T04:25:02;7.67;;;4.00;;
14231;SDS011;7200;52.194;9.900;2023-11-21T04:27:27;8.03;;;4.20;;
14231;SDS011;7200;52.194;9.900;2023-11-21T04:29:52;21.30;;;6.83;;
14231;SDS011;7200;52.194;9.900;2023-11-21T04:32:18;18.23;;;7.33;;
14231;SDS011;7200;52.194;9.900;2023-11-21T04:34:43;13.73;;;7.63;;
14231;SDS011;7200;52.194;9.900;2023-11-21T04:37:08;10.83;;;3.53;;
14231;SDS011;7200;52.194;9.900;2023-11-21T04:39:35;16.83;;;6.00;;
14231;SDS011;7200;52.194;9.900;2023-11-21T04:42:01;7.00;;;4.67;;
14231;SDS011;7200;52.194;9.900;2023-11-21T04:44:26;12.97;;;4.87;;
14231;SDS011;7200;52.194;9.900;2023-11-21T04:46:51;4.53;;;3.47;;
14231;SDS011;7200;52.194;9.900;2023-11-21T04:49:17;15.97;;;8.80;;
14231;SDS011;7200;52.194;9.900;2023-11-21T04:51:42;0.63;;;0.53;;
14231;SDS011;7200;52.194;9.900;2023-11-21T04:54:07;5.97;;;3.90;;
14231;SDS011;7200;52.194;9.900;2023-11-21T04:56:33;3.97;;;3.30;;
14231;SDS011;7200;52.194;9.900;2023-11-21T04:58:58;19.67;;;10.10;;
14231;SDS011;7200;52.194;9.900;2023-11-21T05:01:23;8.90;;;5.10;;
14231;SDS011;7200;52.194;9.900;2023-11-21T05:03:48;17.77;;;6.53;;
14231;SDS011;7200;52.194;9.900;2023-11-21T05:06:14;10.90;;;3.83;;
14231;SDS011;7200;52.194;9.900;2023-11-21T05:08:39;2.73;;;2.17;;
14231;SDS011;7200;52.194;9.900;2023-11-21T05:11:05;10.20;;;3.00;;
14231;SDS011;7200;52.194;9.900;2023-11-21T05:13:33;35.63;;;7.53;;
14231;SDS011;7200;52.194;9.900;2023-11-21T05:15:59;19.23;;;10.77;;
14231;SDS011;7200;52.194;9.900;2023-11-21T05:18:24;9.97;;;4.17;;
14231;SDS011;7200;52.194;9.900;2023-11-21T05:20:54;5.77;;;3.13;;
14231;SDS011;7200;52.194;9.900;2023-11-21T05:23:20;2.73;;;2.53;;
14231;SDS011;7200;52.194;9.900;2023-11-21T05:25:45;3.63;;;2.07;;
14231;SDS011;7200;52.194;9.900;2023-11-21T05:28:11;17.77;;;8.67;;
14231;SDS011;7200;52.194;9.900;2023-11-21T05:30:37;18.27;;;8.27;;
14231;SDS011;7200;52.194;9.900;2023-11-21T05:33:04;6.70;;;3.63;;
14231;SDS011;7200;52.194;9.900;2023-11-21T05:35:29;3.50;;;3.30;;
14231;SDS011;7200;52.194;9.900;2023-11-21T05:37:54;3.60;;;3.17;;
14231;SDS011;7200;52.194;9.900;2023-11-21T05:40:20;12.27;;;7.63;;
14231;SDS011;7200;52.194;9.900;2023-11-21T05:42:47;14.63;;;6.83;;
14231;SDS011;7200;52.194;9.900;2023-11-21T05:45:13;6.93;;;1.90;;
14231;SDS011;7200;52.194;9.900;2023-11-21T05:47:39;0.60;;;0.60;;
14231;SDS011;7200;52.194;9.900;2023-11-21T05:50:06;19.47;;;6.17;;
14231;SDS011;7200;52.194;9.900;2023-11-21T05:52:36;7.83;;;2.77;;
14231;SDS011;7200;52.194;9.900;2023-11-21T05:55:02;11.20;;;3.77;;
14231;SDS011;7200;52.194;9.900;2023-11-21T05:57:27;3.63;;;2.70;;
14231;SDS011;7200;52.194;9.900;2023-11-21T05:59:54;6.23;;;2.47;;
14231;SDS011;7200;52.194;9.900;2023-11-21T06:02:19;9.27;;;2.43;;
14231;SDS011;7200;52.194;9.900;2023-11-21T06:04:51;2.90;;;1.00;;
14231;SDS011;7200;52.194;9.900;2023-11-21T06:07:16;0.10;;;0.10;;
14231;SDS011;7200;52.194;9.900;2023-11-21T06:09:41;0.00;;;0.00;;
14231;SDS011;7200;52.194;9.900;2023-11-21T06:12:07;0.83;;;0.83;;
14231;SDS011;7200;52.194;9.900;2023-11-21T06:14:32;0.77;;;0.77;;
14231;SDS011;7200;52.194;9.900;2023-11-21T06:17:00;4.60;;;4.33;;
14231;SDS011;7200;52.194;9.900;2023-11-21T06:19:25;1.77;;;1.70;;
14231;SDS011;7200;52.194;9.900;2023-11-21T06:21:50;0.00;;;0.00;;
14231;SDS011;7200;52.194;9.900;2023-11-21T06:24:16;0.40;;;0.40;;
14231;SDS011;7200;52.194;9.900;2023-11-21T06:26:42;1.90;;;1.30;;
14231;SDS011;7200;52.194;9.900;2023-11-21T06:29:09;0.03;;;0.03;;
14231;SDS011;7200;52.194;9.900;2023-11-21T06:31:34;1.23;;;1.17;;
14231;SDS011;7200;52.194;9.900;2023-11-21T06:33:59;3.17;;;2.97;;
14231;SDS011;7200;52.194;9.900;2023-11-21T06:36:25;1.87;;;1.77;;
14231;SDS011;7200;52.194;9.900;2023-11-21T06:38:51;0.70;;;0.70;;
14231;SDS011;7200;52.194;9.900;2023-11-21T06:41:17;1.40;;;1.30;;
14231;SDS011;7200;52.194;9.900;2023-11-21T06:43:42;1.03;;;1.03;;
14231;SDS011;7200;52.194;9.900;2023-11-21T06:46:11;1.53;;;1.43;;
14231;SDS011;7200;52.194;9.900;2023-11-21T06:48:36;10.00;;;0.70;;
14231;SDS011;7200;52.194;9.900;2023-11-21T06:51:03;0.83;;;0.83;;
14231;SDS011;7200;52.194;9.900;2023-11-21T06:53:28;0.00;;;0.00;;
14231;SDS011;7200;52.194;9.900;2023-11-21T06:55:54;2.03;;;1.87;;
14231;SDS011;7200;52.194;9.900;2023-11-21T06:58:19;1.10;;;1.10;;
14231;SDS011;7200;52.194;9.900;2023-11-21T07:00:44;5.03;;;4.03;;
14231;SDS011;7200;52.194;9.900;2023-11-21T07:03:11;1.07;;;1.03;;
14231;SDS011;7200;52.194;9.900;2023-11-21T07:05:37;9.43;;;2.50;;
14231;SDS011;7200;52.194;9.900;2023-11-21T07:08:02;0.23;;;0.20;;
14231;SDS011;7200;52.194;9.900;2023-11-21T07:10:29;0.10;;;0.10;;
14231;SDS011;7200;52.194;9.900;2023-11-21T07:12:54;0.00;;;0.00;;
14231;SDS011;7200;52.194;9.900;2023-11-21T07:15:20;2.10;;;1.50;;
14231;SDS011;7200;52.194;9.900;2023-11-21T07:17:46;2.20;;;1.60;;
14231;SDS011;7200;52.194;9.900;2023-11-21T07:20:13;0.00;;;0.00;;
14231;SDS011;7200;52.194;9.900;2023-11-21T07:22:38;1.80;;;1.73;;
14231;SDS011;7200;52.194;9.900;2023-11-21T07:25:04;0.00;;;0.00;;
14231;SDS011;7200;52.194;9.900;2023-11-21T07:27:30;0.00;;;0.00;;
14231;SDS011;7200;52.194;9.900;2023-11-21T07:29:55;5.40;;;4.90;;
14231;SDS011;7200;52.194;9.900;2023-11-21T07:32:20;0.00;;;0.00;;
14231;SDS011;7200;52.194;9.900;2023-11-21T07:34:46;0.77;;;0.23;;
14231;SDS011;7200;52.194;9.900;2023-11-21T07:37:11;0.43;;;0.43;;
14231;SDS011;7200;52.194;9.900;2023-11-21T07:39:37;0.67;;;0.40;;
14231;SDS011;7200;52.194;9.900;2023-11-21T07:42:06;2.10;;;1.07;;
14231;SDS011;7200;52.194;9.900;2023-11-21T07:44:32;1.10;;;0.93;;
14231;SDS011;7200;52.194;9.900;2023-11-21T07:46:57;0.40;;;0.40;;
14231;SDS011;7200;52.194;9.900;2023-11-21T07:49:25;0.27;;;0.27;;
14231;SDS011;7200;52.194;9.900;2023-11-21T07:51:51;0.30;;;0.30;;
14231;SDS011;7200;52.194;9.900;2023-11-21T07:54:17;0.10;;;0.10;;
14231;SDS011;7200;52.194;9.900;2023-11-21T07:56:43;0.27;;;0.27;;
14231;SDS011;7200;52.194;9.900;2023-11-21T07:59:08;2.20;;;1.23;;
14231;SDS011;7200;52.194;9.900;2023-11-21T08:01:33;0.27;;;0.23;;
14231;SDS011;7200;52.194;9.900;2023-11-21T08:03:59;0.70;;;0.60;;
14231;SDS011;7200;52.194;9.900;2023-11-21T08:06:28;0.83;;;0.50;;
14231;SDS011;7200;52.194;9.900;2023-11-21T08:08:54;0.10;;;0.10;;
14231;SDS011;7200;52.194;9.900;2023-11-21T08:11:19;0.30;;;0.30;;
14231;SDS011;7200;52.194;9.900;2023-11-21T08:13:44;0.60;;;0.60;;
14231;SDS011;7200;52.194;9.900;2023-11-21T08:16:10;1.13;;;1.03;;
14231;SDS011;7200;52.194;9.900;2023-11-21T08:18:37;0.70;;;0.70;;
14231;SDS011;7200;52.194;9.900;2023-11-21T08:21:02;1.10;;;1.10;;
14231;SDS011;7200;52.194;9.900;2023-11-21T08:23:29;1.83;;;1.70;;
14231;SDS011;7200;52.194;9.900;2023-11-21T08:25:54;1.00;;;0.60;;
14231;SDS011;7200;52.194;9.900;2023-11-21T08:28:20;1.17;;;0.77;;
14231;SDS011;7200;52.194;9.900;2023-11-21T08:30:51;0.00;;;0.00;;
14231;SDS011;7200;52.194;9.900;2023-11-21T08:33:17;0.97;;;0.97;;
14231;SDS011;7200;52.194;9.900;2023-11-21T08:35:43;0.33;;;0.33;;
14231;SDS011;7200;52.194;9.900;2023-11-21T08:38:08;0.50;;;0.50;;
14231;SDS011;7200;52.194;9.900;2023-11-21T08:40:35;0.00;;;0.00;;
14231;SDS011;7200;52.194;9.900;2023-11-21T08:43:00;0.87;;;0.80;;
14231;SDS011;7200;52.194;9.900;2023-11-21T08:45:25;0.70;;;0.43;;
14231;SDS011;7200;52.194;9.900;2023-11-21T08:47:51;1.13;;;0.77;;
14231;SDS011;7200;52.194;9.900;2023-11-21T08:50:17;1.73;;;1.40;;
14231;SDS011;7200;52.194;9.900;2023-11-21T08:52:43;1.50;;;1.40;;
14231;SDS011;7200;52.194;9.900;2023-11-21T08:55:09;1.40;;;1.40;;
14231;SDS011;7200;52.194;9.900;2023-11-21T08:57:37;1.10;;;1.10;;
14231;SDS011;7200;52.194;9.900;2023-11-21T09:00:04;1.47;;;1.43;;
14231;SDS011;7200;52.194;9.900;2023-11-21T09:02:35;2.10;;;2.00;;
14231;SDS011;7200;52.194;9.900;2023-11-21T09:05:02;1.37;;;1.27;;
14231;SDS011;7200;52.194;9.900;2023-11-21T09:07:28;6.50;;;1.07;;
14231;SDS011;7200;52.194;9.900;2023-11-21T09:09:54;4.07;;;2.53;;
14231;SDS011;7200;52.194;9.900;2023-11-21T09:12:20;2.00;;;1.20;;
14231;SDS011;7200;52.194;9.900;2023-11-21T09:14:45;0.83;;;0.70;;
14231;SDS011;7200;52.194;9.900;2023-11-21T09:17:11;0.40;;;0.40;;
14231;SDS011;7200;52.194;9.900;2023-11-21T09:19:40;0.30;;;0.30;;
14231;SDS011;7200;52.194;9.900;2023-11-21T09:22:10;1.50;;;0.63;;
14231;SDS011;7200;52.194;9.900;2023-11-21T09:24:36;1.43;;;0.60;;
14231;SDS011;7200;52.194;9.900;2023-11-21T09:27:02;2.20;;;1.60;;
14231;SDS011;7200;52.194;9.900;2023-11-21T09:29:28;0.60;;;0.60;;
14231;SDS011;7200;52.194;9.900;2023-11-21T09:31:54;3.40;;;3.00;;
14231;SDS011;7200;52.194;9.900;2023-11-21T09:34:20;2.63;;;1.67;;
14231;SDS011;7200;52.194;9.900;2023-11-21T09:36:46;1.70;;;0.93;;
14231;SDS011;7200;52.194;9.900;2023-11-21T09:39:12;4.03;;;3.73;;
14231;SDS011;7200;52.194;9.900;2023-11-21T09:44:17;1.60;;;1.27;;
14231;SDS011;7200;52.194;9.900;2023-11-21T09:46:45;0.60;;;0.60;;
14231;SDS011;7200;52.194;9.900;2023-11-21T09:49:14;1.60;;;0.63;;
14231;SDS011;7200;52.194;9.900;2023-11-21T09:51:42;3.77;;;1.13;;
14231;SDS011;7200;52.194;9.900;2023-11-21T09:54:08;0.10;;;0.10;;
14231;SDS011;7200;52.194;9.900;2023-11-21T09:56:36;2.00;;;1.90;;
14231;SDS011;7200;52.194;9.900;2023-11-21T09:59:03;3.20;;;2.33;;
14231;SDS011;7200;52.194;9.900;2023-11-21T10:01:32;1.37;;;1.37;;
14231;SDS011;7200;52.194;9.900;2023-11-21T10:04:00;0.43;;;0.43;;
14231;SDS011;7200;52.194;9.900;2023-11-21T10:06:26;0.20;;;0.20;;
14231;SDS011;7200;52.194;9.900;2023-11-21T10:08:52;0.13;;;0.13;;
14231;SDS011;7200;52.194;9.900;2023-11-21T10:11:20;0.00;;;0.00;;
14231;SDS011;7200;52.194;9.900;2023-11-21T10:13:52;1.07;;;0.97;;
14231;SDS011;7200;52.194;9.900;2023-11-21T10:16:19;1.53;;;0.90;;
14231;SDS011;7200;52.194;9.900;2023-11-21T10:18:48;0.37;;;0.37;;
14231;SDS011;7200;52.194;9.900;2023-11-21T10:21:17;0.10;;;0.10;;
14231;SDS011;7200;52.194;9.900;2023-11-21T10:23:43;0.80;;;0.80;;
14231;SDS011;7200;52.194;9.900;2023-11-21T10:26:09;0.60;;;0.60;;
14231;SDS011;7200;52.194;9.900;2023-11-21T10:28:41;5.30;;;2.60;;
14231;SDS011;7200;52.194;9.900;2023-11-21T10:31:29;1.23;;;1.17;;
14231;SDS011;7200;52.194;9.900;2023-11-21T10:33:57;0.27;;;0.27;;
14231;SDS011;7200;52.194;9.900;2023-11-21T10:36:40;1.10;;;1.03;;
14231;SDS011;7200;52.194;9.900;2023-11-21T10:39:06;0.83;;;0.83;;
14231;SDS011;7200;52.194;9.900;2023-11-21T10:41:31;0.93;;;0.93;;
14231;SDS011;7200;52.194;9.900;2023-11-21T10:43:57;0.87;;;0.87;;
14231;SDS011;7200;52.194;9.900;2023-11-21T10:46:23;0.90;;;0.90;;
14231;SDS011;7200;52.194;9.900;2023-11-21T10:48:52;1.83;;;1.70;;
14231;SDS011;7200;52.194;9.900;2023-11-21T10:51:21;1.93;;;1.73;;
14231;SDS011;7200;52.194;9.900;2023-11-21T10:53:47;0.93;;;0.93;;
14231;SDS011;7200;52.194;9.900;2023-11-21T10:56:13;1.77;;;1.67;;
14231;SDS011;7200;52.194;9.900;2023-11-21T10:58:45;2.33;;;1.63;;
14231;SDS011;7200;52.194;9.900;2023-11-21T11:01:10;1.00;;;1.00;;
14231;SDS011;7200;52.194;9.900;2023-11-21T11:03:37;0.37;;;0.33;;
14231;SDS011;7200;52.194;9.900;2023-11-21T11:06:02;1.90;;;1.63;;
14231;SDS011;7200;52.194;9.900;2023-11-21T11:08:29;1.23;;;1.17;;
14231;SDS011;7200;52.194;9.900;2023-11-21T11:10:56;0.73;;;0.73;;
14231;SDS011;7200;52.194;9.900;2023-11-21T11:13:21;1.80;;;1.20;;
14231;SDS011;7200;52.194;9.900;2023-11-21T11:15:47;3.57;;;2.50;;
14231;SDS011;7200;52.194;9.900;2023-11-21T11:18:13;7.63;;;0.63;;
14231;SDS011;7200;52.194;9.900;2023-11-21T11:20:40;0.77;;;0.77;;
14231;SDS011;7200;52.194;9.900;2023-11-21T11:26:10;2.13;;;1.03;;
14231;SDS011;7200;52.194;9.900;2023-11-21T11:28:57;1.40;;;1.30;;
14231;SDS011;7200;52.194;9.900;2023-11-21T11:31:42;1.30;;;1.17;;
14231;SDS011;7200;52.194;9.900;2023-11-21T11:36:54;0.00;;;0.00;;
14231;SDS011;7200;52.194;9.900;2023-11-21T11:41:55;0.30;;;0.30;;
14231;SDS011;7200;52.194;9.900;2023-11-21T11:50:17;0.60;;;0.60;;
14231;SDS011;7200;52.194;9.900;2023-11-21T11:52:43;0.67;;;0.67;;
14231;SDS011;7200;52.194;9.900;2023-11-21T11:55:10;0.10;;;0.10;;
14231;SDS011;7200;52.194;9.900;2023-11-21T11:57:38;0.60;;;0.60;;
14231;SDS011;7200;52.194;9.900;2023-11-21T12:02:46;3.30;;;0.87;;
14231;SDS011;7200;52.194;9.900;2023-11-21T12:05:17;0.00;;;0.00;;
14231;SDS011;7200;52.194;9.900;2023-11-21T12:07:56;0.33;;;0.33;;
14231;SDS011;7200;52.194;9.900;2023-11-21T12:10:27;0.40;;;0.40;;
14231;SDS011;7200;52.194;9.900;2023-11-21T12:12:54;0.43;;;0.43;;
14231;SDS011;7200;52.194;9.900;2023-11-21T12:15:21;0.40;;;0.30;;
14231;SDS011;7200;52.194;9.900;2023-11-21T12:17:48;2.93;;;2.23;;
14231;SDS011;7200;52.194;9.900;2023-11-21T12:20:16;0.37;;;0.37;;
14231;SDS011;7200;52.194;9.900;2023-11-21T12:25:17;0.10;;;0.10;;
14231;SDS011;7200;52.194;9.900;2023-11-21T12:27:53;1.13;;;1.13;;
14231;SDS011;7200;52.194;9.900;2023-11-21T12:30:20;3.50;;;1.33;;
14231;SDS011;7200;52.194;9.900;2023-11-21T12:32:53;0.87;;;0.60;;
14231;SDS011;7200;52.194;9.900;2023-11-21T12:35:21;0.20;;;0.20;;
14231;SDS011;7200;52.194;9.900;2023-11-21T12:37:48;1.53;;;1.43;;
14231;SDS011;7200;52.194;9.900;2023-11-21T12:40:14;0.40;;;0.40;;
14231;SDS011;7200;52.194;9.900;2023-11-21T12:42:41;0.10;;;0.10;;
14231;SDS011;7200;52.194;9.900;2023-11-21T12:45:10;0.83;;;0.73;;
14231;SDS011;7200;52.194;9.900;2023-11-21T12:47:42;2.20;;;1.83;;
14231;SDS011;7200;52.194;9.900;2023-11-21T12:50:09;3.33;;;3.03;;
14231;SDS011;7200;52.194;9.900;2023-11-21T12:52:41;4.13;;;1.20;;
14231;SDS011;7200;52.194;9.900;2023-11-21T12:55:12;0.30;;;0.30;;
14231;SDS011;7200;52.194;9.900;2023-11-21T12:57:48;1.83;;;1.73;;
14231;SDS011;7200;52.194;9.900;2023-11-21T13:00:19;1.60;;;1.50;;
14231;SDS011;7200;52.194;9.900;2023-11-21T13:02:58;0.47;;;0.47;;
14231;SDS011;7200;52.194;9.900;2023-11-21T13:05:30;1.23;;;1.23;;
14231;SDS011;7200;52.194;9.900;2023-11-21T13:07:58;0.53;;;0.53;;
14231;SDS011;7200;52.194;9.900;2023-11-21T13:10:28;0.20;;;0.20;;
14231;SDS011;7200;52.194;9.900;2023-11-21T13:12:58;0.43;;;0.43;;
14231;SDS011;7200;52.194;9.900;2023-11-21T13:15:25;0.17;;;0.17;;
14231;SDS011;7200;52.194;9.900;2023-11-21T13:17:52;1.33;;;1.20;;
14231;SDS011;7200;52.194;9.900;2023-11-21T13:20:18;1.67;;;1.57;;
14231;SDS011;7200;52.194;9.900;2023-11-21T13:22:49;0.60;;;0.60;;
14231;SDS011;7200;52.194;9.900;2023-11-21T13:25:15;0.90;;;0.90;;
14231;SDS011;7200;52.194;9.900;2023-11-21T13:27:43;0.20;;;0.20;;
14231;SDS011;7200;52.194;9.900;2023-11-21T13:30:10;2.20;;;1.30;;
14231;SDS011;7200;52.194;9.900;2023-11-21T13:32:40;0.20;;;0.20;;
14231;SDS011;7200;52.194;9.900;2023-11-21T13:35:05;0.40;;;0.40;;
14231;SDS011;7200;52.194;9.900;2023-11-21T13:37:33;0.50;;;0.50;;
14231;SDS011;7200;52.194;9.900;2023-11-21T13:39:59;0.40;;;0.40;;
14231;SDS011;7200;52.194;9.900;2023-11-21T13:42:31;0.73;;;0.73;;
14231;SDS011;7200;52.194;9.900;2023-11-21T13:44:57;0.10;;;0.10;;
14231;SDS011;7200;52.194;9.900;2023-11-21T13:47:22;0.10;;;0.10;;
14231;SDS011;7200;52.194;9.900;2023-11-21T13:49:50;0.20;;;0.20;;
14231;SDS011;7200;52.194;9.900;2023-11-21T13:52:16;0.20;;;0.20;;
14231;SDS011;7200;52.194;9.900;2023-11-21T13:54:42;0.97;;;0.83;;
14231;SDS011;7200;52.194;9.900;2023-11-21T13:57:07;0.50;;;0.50;;
14231;SDS011;7200;52.194;9.900;2023-11-21T13:59:33;0.10;;;0.10;;
14231;SDS011;7200;52.194;9.900;2023-11-21T14:01:58;0.50;;;0.50;;
14231;SDS011;7200;52.194;9.900;2023-11-21T14:04:42;0.20;;;0.20;;
14231;SDS011;7200;52.194;9.900;2023-11-21T14:07:21;0.30;;;0.30;;
14231;SDS011;7200;52.194;9.900;2023-11-21T14:09:56;0.20;;;0.20;;
14231;SDS011;7200;52.194;9.900;2023-11-21T14:12:23;1.23;;;1.17;;
14231;SDS011;7200;52.194;9.900;2023-11-21T14:14:49;0.10;;;0.10;;
14231;SDS011;7200;52.194;9.900;2023-11-21T14:17:14;1.63;;;1.53;;
14231;SDS011;7200;52.194;9.900;2023-11-21T14:19:39;0.10;;;0.10;;
14231;SDS011;7200;52.194;9.900;2023-11-21T14:22:08;0.57;;;0.57;;
14231;SDS011;7200;52.194;9.900;2023-11-21T14:24:34;0.10;;;0.10;;
14231;SDS011;7200;52.194;9.900;2023-11-21T14:27:00;1.00;;;1.00;;
14231;SDS011;7200;52.194;9.900;2023-11-21T14:29:25;2.10;;;1.03;;
14231;SDS011;7200;52.194;9.900;2023-11-21T14:31:52;0.80;;;0.80;;
14231;SDS011;7200;52.194;9.900;2023-11-21T14:34:21;1.00;;;0.80;;
14231;SDS011;7200;52.194;9.900;2023-11-21T14:36:46;0.53;;;0.53;;
14231;SDS011;7200;52.194;9.900;2023-11-21T14:39:12;0.70;;;0.70;;
14231;SDS011;7200;52.194;9.900;2023-11-21T14:41:53;0.93;;;0.93;;
14231;SDS011;7200;52.194;9.900;2023-11-21T14:44:20;0.40;;;0.40;;
14231;SDS011;7200;52.194;9.900;2023-11-21T14:46:50;0.10;;;0.10;;
14231;SDS011;7200;52.194;9.900;2023-11-21T14:49:16;0.80;;;0.80;;
14231;SDS011;7200;52.194;9.900;2023-11-21T14:51:46;1.17;;;0.90;;
14231;SDS011;7200;52.194;9.900;2023-11-21T14:54:35;0.20;;;0.20;;
14231;SDS011;7200;52.194;9.900;2023-11-21T14:57:10;0.57;;;0.57;;
14231;SDS011;7200;52.194;9.900;2023-11-21T14:59:42;0.17;;;0.17;;
14231;SDS011;7200;52.194;9.900;2023-11-21T15:02:08;0.20;;;0.20;;
14231;SDS011;7200;52.194;9.900;2023-11-21T15:04:43;0.20;;;0.20;;
14231;SDS011;7200;52.194;9.900;2023-11-21T15:07:09;0.70;;;0.70;;
14231;SDS011;7200;52.194;9.900;2023-11-21T15:09:36;0.10;;;0.10;;
14231;SDS011;7200;52.194;9.900;2023-11-21T15:12:10;0.10;;;0.10;;
14231;SDS011;7200;52.194;9.900;2023-11-21T15:14:49;0.63;;;0.63;;
14231;SDS011;7200;52.194;9.900;2023-11-21T15:17:20;7.30;;;1.20;;
14231;SDS011;7200;52.194;9.900;2023-11-21T15:19:55;1.00;;;1.00;;